Laurent Verva

Laurent Verva

Statistiques 2026

  • Courses courues : 42
  • Nb de victoires : -
  • Nb de places : 1
  • Écart gagnant : 143
  • Réussite à la gagne : -
  • Réussite à la place : 2%
Musique : 0a 8a 4a 6a 6a 0a 5a 5a Da 2a 9a 6a 5a Da 6a 0a 7a 4a
DateRangCatégorieAlloc.Dist.HippodromeChevalRed. KmSpé.
25/03/18 5 Trot 14 000€ 2 550m Reims Ariaka 1'17"2 Attelé
29/03/18 6 Trot 20 000€ 2 600m Reims Ethano de Bouteau 1'17"4 Attelé
01/04/18 9 Trot 25 000€ 2 600m Reims Valerko Sprint 1'15"4 Attelé lire

N'a pu que figurer au sein du peloton.

01/04/18 8 Trot 19 000€ 2 600m Reims Fayette Tilly 1'18"3 Attelé lire

Après avoir figuré, a nettement faibli pour finir.

01/04/18 5 Trot 21 000€ 2 600m Reims Cubana 1'16"3 Attelé lire

Après avoir bien figuré, a conclu fort honorablement.

09/04/18 D Trot 30 000€ 2 600m Reims Viva Well Attelé
09/04/18 5 Trot 21 000€ 2 600m Reims Au Temps Dubonheur 1'14"3 Attelé
09/04/18 4 Trot 20 000€ 2 600m Reims Etoile Dubonheur 1'16"9 Attelé
16/04/18 D Trot 21 000€ 2 600m Reims Ethano de Bouteau Attelé
27/05/18 7 Trot 20 000€ 2 600m Reims Etoile Dubonheur 1'16"3 Attelé
27/05/18 4 Trot 20 000€ 2 550m Reims Dryade des Salines 1'16"2 Attelé
27/05/18 3 Trot 20 000€ 2 600m Reims Ethano de Bouteau 1'16"5 Attelé
09/06/18 0 Trot 26 000€ 2 575m Reims Valerko Sprint Attelé
09/06/18 D Trot 16 000€ 2 600m Reims Elixir Neslois Attelé
09/06/18 5 Trot 13 000€ 2 600m Reims Farca Sly 1'18"5 Attelé
09/06/18 1 Trot 16 000€ 2 575m Reims Diego du Houlet 1'15"2 Attelé
20/06/18 8 Trot 22 000€ 2 550m Reims Elliot d'Alci 1'15"3 Attelé
20/06/18 0 Trot 22 000€ 2 550m Reims Dryade des Salines Attelé
13/09/18 6 Trot 20 000€ 2 600m Reims Dollar de l'Iton 1'15"5 Attelé
13/09/18 6 Trot 20 000€ 2 600m Reims Elisee du Pont 1'16"4 Attelé
13/09/18 0 Trot 22 000€ 2 600m Reims Frivole d'Arbaz Attelé
11/10/18 D Trot 32 000€ 2 550m Reims Aladin Pierji Attelé
11/10/18 4 Trot 24 000€ 2 575m Reims Au Temps Dubonheur 1'14"3 Attelé
11/10/18 D Trot 20 000€ 2 600m Reims Elliot d'Alci Attelé
31/10/18 1 Trot 20 000€ 2 600m Reims Ercule de Navary 1'15"8 Attelé
31/10/18 7 Trot 19 000€ 2 600m Reims Etoile Dubonheur 1'16"6 Attelé
31/10/18 3 Trot 20 000€ 2 600m Reims Filea de la Besvre 1'16"7 Attelé
15/11/18 6 Trot 22 000€ 2 600m Reims Fire Bird 1'17"4 Attelé
15/11/18 0 Trot 19 000€ 2 600m Reims Ercule de Navary Attelé
15/11/18 0 Trot 22 000€ 2 600m Reims Flamme Mencourt Attelé
25/11/18 4 Trot 13 000€ 2 600m Reims Farca Sly 1'17"9 Attelé
25/11/18 D Trot 13 000€ 2 600m Reims Flashback Syga Attelé
25/11/18 3 Trot 15 000€ 2 575m Reims Emile de Jal 1'17"1 Attelé
25/11/18 4 Trot 15 000€ 2 575m Reims Esteve le Fol 1'16"7 Attelé
25/11/18 7 Trot 20 000€ 2 575m Reims Bilingue d'Alci 1'15"4 Attelé
03/03/13 3 Trot 16 000€ 2 600m Reims Ulna Rose 1'18"1 Attelé
21/03/13 6 Trot 32 000€ 2 600m Reims Radieuse du Breu 1'16"2 Attelé
21/03/13 9 Trot 18 000€ 2 600m Reims Raida des Valois 1'17"8 Attelé
25/03/13 3 Trot 22 000€ 2 600m Reims Vita de la Besvre 1'17"8 Attelé
25/03/13 3 Trot 32 000€ 2 600m Reims Soleil Sautreuil 1'16"5 Attelé
25/03/13 5 Trot 21 000€ 2 600m Reims Volney d'Alci 1'18"3 Attelé
28/03/13 D Trot 18 000€ 2 600m Reims Vacation Attelé
28/03/13 2 Trot 21 000€ 2 600m Reims Vethano de Bouteau 1'17"6 Attelé
28/03/13 8 Trot 21 000€ 2 600m Reims Ultra Light 1'16"9 Attelé
07/04/13 8 Trot 13 000€ 2 600m Reims Alex de Neulliac 1'19"0 Attelé
07/04/13 7 Trot 15 000€ 2 600m Reims Unicmencourt 1'17"0 Attelé
07/04/13 1 Trot 10 000€ 2 600m Reims Raida des Valois 1'16"6 Attelé
07/04/13 D Trot 14 000€ 2 600m Reims Vegas Ceijy Attelé
21/04/13 6 Trot 21 000€ 2 600m Reims Une Belle Riviere 1'16"6 Attelé
21/04/13 6 Trot 18 000€ 2 600m Reims Volney d'Alci 1'17"7 Attelé